createdAt,value
2022-11-04T00:00:12.515Z,0
2022-11-04T00:01:28.657Z,0
2022-11-04T00:02:44.000Z,0
2022-11-04T00:04:00.000Z,0
2022-11-04T00:05:16.000Z,0
2022-11-04T00:06:32.000Z,0
2022-11-04T00:07:48.000Z,0
2022-11-04T00:09:04.538Z,0
2022-11-04T00:10:20.000Z,0
2022-11-04T00:11:36.000Z,0
2022-11-04T00:12:53.135Z,0
2022-11-04T00:14:08.000Z,0
2022-11-04T00:15:25.000Z,0
2022-11-04T00:16:41.420Z,0
2022-11-04T00:17:57.000Z,0
2022-11-04T00:19:13.000Z,0
2022-11-04T00:20:29.000Z,0
2022-11-04T00:21:45.000Z,0
2022-11-04T00:23:01.164Z,0
2022-11-04T00:24:17.328Z,0
2022-11-04T00:25:33.000Z,0
2022-11-04T00:26:49.000Z,0
2022-11-04T00:28:05.000Z,0
2022-11-04T00:29:21.900Z,0
2022-11-04T00:30:37.000Z,0
2022-11-04T00:31:54.198Z,0
2022-11-04T00:33:10.000Z,0
2022-11-04T00:34:26.000Z,0
2022-11-04T00:35:42.000Z,0
2022-11-04T00:36:58.783Z,0
2022-11-04T00:38:14.000Z,0
2022-11-04T00:39:29.000Z,0
2022-11-04T00:40:46.249Z,0
2022-11-04T00:42:02.000Z,0
2022-11-04T00:43:18.529Z,0
2022-11-04T00:44:34.000Z,0
2022-11-04T00:45:50.826Z,0
2022-11-04T00:47:06.000Z,0
2022-11-04T00:48:22.000Z,0
2022-11-04T00:49:39.269Z,0
2022-11-04T00:50:55.000Z,0
2022-11-04T00:52:11.000Z,0
2022-11-04T00:53:27.000Z,0
2022-11-04T00:54:43.000Z,0
2022-11-04T00:55:59.027Z,0
2022-11-04T00:57:14.000Z,0
2022-11-04T00:58:31.304Z,0
2022-11-04T00:59:47.000Z,0
2022-11-04T01:01:03.000Z,0
2022-11-04T01:02:19.000Z,0
2022-11-04T01:03:35.000Z,0
2022-11-04T01:04:52.053Z,0
2022-11-04T01:06:07.000Z,0
2022-11-04T01:07:24.000Z,0
2022-11-04T01:08:40.000Z,0
2022-11-04T01:09:56.000Z,0
2022-11-04T01:11:12.000Z,0
2022-11-04T01:12:27.000Z,0
2022-11-04T01:13:43.000Z,0
2022-11-04T01:15:00.231Z,0
2022-11-04T01:16:16.000Z,0
2022-11-04T01:17:32.000Z,0
2022-11-04T01:18:47.000Z,0
2022-11-04T01:20:03.849Z,0
2022-11-04T01:21:19.000Z,0
2022-11-04T01:22:35.000Z,0
2022-11-04T01:23:52.000Z,0
2022-11-04T01:25:08.000Z,0
2022-11-04T01:26:24.000Z,0
2022-11-04T01:27:40.000Z,0
2022-11-04T01:28:56.000Z,0
2022-11-04T01:30:12.000Z,0
2022-11-04T01:31:29.165Z,0
2022-11-04T01:32:45.000Z,0
2022-11-04T01:34:01.000Z,0
2022-11-04T01:35:16.000Z,0
2022-11-04T01:36:32.000Z,0
2022-11-04T01:37:48.000Z,0
2022-11-04T01:39:04.000Z,0
2022-11-04T01:40:20.000Z,0
2022-11-04T01:41:37.000Z,0
2022-11-04T01:42:53.498Z,0
2022-11-04T01:44:09.000Z,0
2022-11-04T01:45:25.798Z,0
2022-11-04T01:46:41.000Z,0
2022-11-04T01:47:58.081Z,0
2022-11-04T01:49:14.226Z,0
2022-11-04T01:50:30.000Z,0
2022-11-04T01:51:45.544Z,0
2022-11-04T01:53:01.000Z,0
2022-11-04T01:54:17.840Z,0
2022-11-04T01:55:33.000Z,0
2022-11-04T01:56:49.000Z,0
2022-11-04T01:58:06.000Z,0
2022-11-04T01:59:22.000Z,0
2022-11-04T02:00:38.000Z,0
2022-11-04T02:01:54.000Z,0
2022-11-04T02:03:10.000Z,0
2022-11-04T02:04:26.000Z,0
2022-11-04T02:05:42.000Z,0
2022-11-04T02:06:59.000Z,0
2022-11-04T02:08:14.000Z,0
2022-11-04T02:09:30.000Z,0
2022-11-04T02:10:46.000Z,0
2022-11-04T02:12:02.000Z,0
2022-11-04T02:13:18.000Z,0
2022-11-04T02:14:34.000Z,0
2022-11-04T02:15:51.343Z,0
2022-11-04T02:17:07.000Z,0
2022-11-04T02:18:23.635Z,0
2022-11-04T02:19:39.000Z,0
2022-11-04T02:20:55.000Z,0
2022-11-04T02:22:12.077Z,0
2022-11-04T02:23:27.000Z,0
2022-11-04T02:24:43.000Z,0
2022-11-04T02:25:59.000Z,0
2022-11-04T02:27:15.000Z,0
2022-11-04T02:28:31.829Z,0
2022-11-04T02:29:47.000Z,0
2022-11-04T02:31:03.000Z,0
2022-11-04T02:32:20.000Z,0
2022-11-04T02:33:36.000Z,0
2022-11-04T02:34:52.000Z,0
2022-11-04T02:36:08.712Z,0
2022-11-04T02:37:24.000Z,0
2022-11-04T02:38:41.036Z,0
2022-11-04T02:39:57.149Z,0
2022-11-04T02:41:12.323Z,0
2022-11-04T02:42:28.000Z,0
2022-11-04T02:43:44.000Z,0
2022-11-04T02:45:00.000Z,0
2022-11-04T02:46:16.000Z,0
2022-11-04T02:47:33.039Z,0
2022-11-04T02:48:49.206Z,0
2022-11-04T02:50:05.000Z,0
2022-11-04T02:51:21.000Z,0
2022-11-04T02:52:37.000Z,0
2022-11-04T02:53:53.000Z,0
2022-11-04T02:55:09.921Z,0
2022-11-04T02:56:26.067Z,0
2022-11-04T02:57:41.000Z,0
2022-11-04T02:58:57.000Z,0
2022-11-04T03:00:13.000Z,0
2022-11-04T03:01:29.000Z,0
2022-11-04T03:02:45.000Z,0
2022-11-04T03:04:01.000Z,0
2022-11-04T03:05:17.000Z,0
2022-11-04T03:06:34.000Z,0
2022-11-04T03:07:50.000Z,0
2022-11-04T03:09:06.551Z,0
2022-11-04T03:10:22.000Z,0
2022-11-04T03:11:38.850Z,0
2022-11-04T03:12:54.000Z,0
2022-11-04T03:14:10.155Z,0
2022-11-04T03:15:26.000Z,0
2022-11-04T03:16:42.000Z,0
2022-11-04T03:17:58.595Z,0
2022-11-04T03:19:14.000Z,0
2022-11-04T03:20:30.891Z,0
2022-11-04T03:21:46.000Z,0
2022-11-04T03:23:02.000Z,0
2022-11-04T03:24:19.000Z,0
2022-11-04T03:25:35.000Z,0
2022-11-04T03:26:51.000Z,0
2022-11-04T03:28:07.765Z,0
2022-11-04T03:29:23.000Z,0
2022-11-04T03:30:38.000Z,0
2022-11-04T03:31:55.237Z,0
2022-11-04T03:33:11.000Z,0
2022-11-04T03:34:27.000Z,0
2022-11-04T03:35:43.000Z,0
2022-11-04T03:36:59.000Z,0
2022-11-04T03:38:15.000Z,0
2022-11-04T03:39:31.000Z,0
2022-11-04T03:40:48.000Z,0
2022-11-04T03:42:04.000Z,0
2022-11-04T03:43:20.000Z,0
2022-11-04T03:44:36.000Z,0
2022-11-04T03:45:52.000Z,0
2022-11-04T03:47:07.000Z,0
2022-11-04T03:48:23.000Z,0
2022-11-04T03:49:40.307Z,0
2022-11-04T03:50:56.000Z,0
2022-11-04T03:52:12.593Z,0
2022-11-04T03:53:28.000Z,0
2022-11-04T03:54:44.881Z,0
2022-11-04T03:56:01.023Z,0
2022-11-04T03:57:16.000Z,0
2022-11-04T03:58:33.000Z,0
2022-11-04T03:59:49.464Z,0
2022-11-04T04:01:05.000Z,0
2022-11-04T04:02:21.761Z,0
2022-11-04T04:03:36.000Z,0
2022-11-04T04:04:52.000Z,0
2022-11-04T04:06:09.219Z,0
2022-11-04T04:07:25.375Z,0
2022-11-04T04:08:41.512Z,0
2022-11-04T04:09:57.660Z,0
2022-11-04T04:11:13.000Z,0
2022-11-04T04:12:29.000Z,0
2022-11-04T04:13:46.093Z,0
2022-11-04T04:15:02.000Z,0
2022-11-04T04:16:18.000Z,0
2022-11-04T04:17:34.000Z,0
2022-11-04T04:18:50.000Z,0
2022-11-04T04:20:05.000Z,0
2022-11-04T04:21:21.000Z,0
2022-11-04T04:22:37.000Z,0
2022-11-04T04:23:54.000Z,0
2022-11-04T04:25:10.000Z,0
2022-11-04T04:26:26.000Z,0
2022-11-04T04:27:42.000Z,0
2022-11-04T04:28:58.000Z,0
2022-11-04T04:30:14.000Z,0
2022-11-04T04:31:30.000Z,0
2022-11-04T04:32:47.000Z,0
2022-11-04T04:34:03.468Z,0
2022-11-04T04:35:19.000Z,0
2022-11-04T04:36:34.000Z,0
2022-11-04T04:37:50.000Z,0
2022-11-04T04:39:06.000Z,0
2022-11-04T04:40:23.227Z,0
2022-11-04T04:41:39.000Z,0
2022-11-04T04:42:55.000Z,0
2022-11-04T04:44:11.647Z,0
2022-11-04T04:45:27.000Z,0
2022-11-04T04:46:43.000Z,0
2022-11-04T04:48:00.089Z,0
2022-11-04T04:49:16.000Z,0
2022-11-04T04:50:32.387Z,0
2022-11-04T04:51:48.541Z,0
2022-11-04T04:53:03.000Z,0
2022-11-04T04:54:19.847Z,0
2022-11-04T04:55:35.989Z,0
2022-11-04T04:56:51.000Z,0
2022-11-04T04:58:08.000Z,0
2022-11-04T04:59:24.000Z,0
2022-11-04T05:00:40.571Z,0
2022-11-04T05:01:56.720Z,0
2022-11-04T05:03:12.000Z,0
2022-11-04T05:04:29.017Z,0
2022-11-04T05:05:44.000Z,0
2022-11-04T05:07:01.000Z,0
2022-11-04T05:08:17.000Z,0
2022-11-04T05:09:32.000Z,0
2022-11-04T05:10:48.000Z,0
2022-11-04T05:12:04.000Z,0
2022-11-04T05:13:20.000Z,0
2022-11-04T05:14:36.000Z,0
2022-11-04T05:15:53.000Z,0
2022-11-04T05:17:09.000Z,0
2022-11-04T05:18:25.644Z,0
2022-11-04T05:19:41.000Z,0
2022-11-04T05:20:57.000Z,0
2022-11-04T05:22:13.000Z,0
2022-11-04T05:23:30.000Z,0
2022-11-04T05:24:46.000Z,0
2022-11-04T05:26:01.000Z,0
2022-11-04T05:27:17.000Z,0
2022-11-04T05:28:33.000Z,0
2022-11-04T05:29:49.000Z,0
2022-11-04T05:31:06.307Z,0
2022-11-04T05:32:22.272Z,0
2022-11-04T05:33:37.000Z,0
2022-11-04T05:34:53.000Z,0
2022-11-04T05:36:09.000Z,0
2022-11-04T05:37:25.000Z,0
2022-11-04T05:38:41.000Z,0
2022-11-04T05:39:57.000Z,0
2022-11-04T05:41:14.000Z,0
2022-11-04T05:42:30.000Z,0
2022-11-04T05:43:46.000Z,0
2022-11-04T05:45:02.000Z,0
2022-11-04T05:46:18.913Z,0
2022-11-04T05:47:35.085Z,0
2022-11-04T05:48:50.000Z,0
2022-11-04T05:50:06.000Z,0
2022-11-04T05:51:22.000Z,0
2022-11-04T05:52:38.000Z,0
2022-11-04T05:53:54.000Z,0
2022-11-04T05:55:10.000Z,0
2022-11-04T05:56:26.000Z,0
2022-11-04T05:57:43.000Z,0
2022-11-04T05:58:59.411Z,0
2022-11-04T06:00:15.000Z,0
2022-11-04T06:01:31.000Z,0
2022-11-04T06:02:47.000Z,0
2022-11-04T06:04:03.000Z,0
2022-11-04T06:05:19.000Z,0
2022-11-04T06:06:35.000Z,0
2022-11-04T06:07:51.442Z,0
2022-11-04T06:09:07.000Z,0
2022-11-04T06:10:23.000Z,4
2022-11-04T06:11:39.000Z,4
2022-11-04T06:12:55.000Z,4
2022-11-04T06:14:11.000Z,4
2022-11-04T06:15:28.000Z,4
2022-11-04T06:16:44.000Z,4
2022-11-04T06:18:00.000Z,12
2022-11-04T06:19:16.000Z,8
2022-11-04T06:20:32.000Z,12
2022-11-04T06:21:49.065Z,12
2022-11-04T06:23:03.000Z,8
2022-11-04T06:24:20.375Z,8
2022-11-04T06:25:36.533Z,8
2022-11-04T06:26:52.000Z,12
2022-11-04T06:28:08.000Z,16
2022-11-04T06:29:24.000Z,24
2022-11-04T06:30:40.000Z,28
2022-11-04T06:31:57.000Z,36
2022-11-04T06:33:13.000Z,40
2022-11-04T06:34:29.000Z,36
2022-11-04T06:35:45.700Z,16
2022-11-04T06:37:01.835Z,32
2022-11-04T06:38:17.000Z,44
2022-11-04T06:39:32.000Z,44
2022-11-04T06:40:49.000Z,44
2022-11-04T06:42:05.000Z,48
2022-11-04T06:43:21.000Z,52
2022-11-04T06:44:37.753Z,56
2022-11-04T06:45:53.000Z,56
2022-11-04T06:47:09.000Z,60
2022-11-04T06:48:25.000Z,64
2022-11-04T06:49:42.338Z,60
2022-11-04T06:50:58.000Z,56
2022-11-04T06:52:14.000Z,56
2022-11-04T06:53:30.758Z,64
2022-11-04T06:54:46.000Z,52
2022-11-04T06:56:02.068Z,64
2022-11-04T06:57:17.000Z,72
2022-11-04T06:58:34.000Z,68
2022-11-04T06:59:50.509Z,108
2022-11-04T07:01:06.000Z,108
2022-11-04T07:02:22.000Z,96
2022-11-04T07:03:38.000Z,132
2022-11-04T07:04:55.101Z,136
2022-11-04T07:06:11.234Z,148
2022-11-04T07:07:27.388Z,108
2022-11-04T07:08:43.000Z,132
2022-11-04T07:09:59.000Z,144
2022-11-04T07:11:15.819Z,144
2022-11-04T07:12:30.000Z,124
2022-11-04T07:13:46.000Z,144
2022-11-04T07:15:03.000Z,108
2022-11-04T07:16:19.000Z,96
2022-11-04T07:17:35.000Z,156
2022-11-04T07:18:51.000Z,140
2022-11-04T07:20:07.000Z,212
2022-11-04T07:21:23.000Z,220
2022-11-04T07:22:40.148Z,236
2022-11-04T07:23:56.297Z,392
2022-11-04T07:25:12.000Z,392
2022-11-04T07:26:28.000Z,388
2022-11-04T07:27:44.000Z,388
2022-11-04T07:28:59.000Z,384
2022-11-04T07:30:15.000Z,328
2022-11-04T07:31:32.177Z,268
2022-11-04T07:32:48.000Z,344
2022-11-04T07:34:04.000Z,456
2022-11-04T07:35:20.000Z,496
2022-11-04T07:36:36.000Z,496
2022-11-04T07:37:52.000Z,544
2022-11-04T07:39:08.000Z,568
2022-11-04T07:40:24.000Z,552
2022-11-04T07:41:41.000Z,520
2022-11-04T07:42:57.000Z,520
2022-11-04T07:44:13.000Z,520
2022-11-04T07:45:29.000Z,528
2022-11-04T07:46:44.000Z,552
2022-11-04T07:48:00.000Z,540
2022-11-04T07:49:17.258Z,516
2022-11-04T07:50:33.000Z,392
2022-11-04T07:51:49.530Z,380
2022-11-04T07:53:05.677Z,364
2022-11-04T07:54:21.000Z,384
2022-11-04T07:55:37.000Z,408
2022-11-04T07:56:53.000Z,408
2022-11-04T07:58:10.000Z,452
2022-11-04T07:59:26.000Z,484
2022-11-04T08:00:42.000Z,716
2022-11-04T08:03:14.000Z,724
2022-11-04T08:04:29.000Z,836
2022-11-04T08:05:45.000Z,800
2022-11-04T08:07:02.000Z,784
2022-11-04T08:08:18.000Z,1020
2022-11-04T08:09:34.571Z,1292
2022-11-04T08:10:50.000Z,1548
2022-11-04T08:12:06.862Z,1896
2022-11-04T08:13:23.012Z,1736
2022-11-04T08:14:38.000Z,1544
2022-11-04T08:15:55.000Z,1312
2022-11-04T08:17:11.000Z,820
2022-11-04T08:18:27.000Z,668
2022-11-04T08:19:43.000Z,624
2022-11-04T08:20:58.895Z,536
2022-11-04T08:22:14.000Z,472
2022-11-04T08:23:30.000Z,380
2022-11-04T08:24:47.000Z,420
2022-11-04T08:26:03.000Z,496
2022-11-04T08:27:19.621Z,404
2022-11-04T08:28:35.000Z,496
2022-11-04T08:29:51.000Z,496
2022-11-04T08:31:07.000Z,636
2022-11-04T08:32:24.209Z,672
2022-11-04T08:33:40.361Z,652
2022-11-04T08:34:56.000Z,592
2022-11-04T08:36:12.657Z,552
2022-11-04T08:37:27.810Z,704
2022-11-04T08:38:43.000Z,712
2022-11-04T08:39:59.000Z,808
2022-11-04T08:41:16.000Z,764
2022-11-04T08:42:32.385Z,464
2022-11-04T08:43:48.537Z,604
2022-11-04T08:45:04.687Z,644
2022-11-04T08:46:20.000Z,796
2022-11-04T08:47:36.000Z,916
2022-11-04T08:48:53.119Z,904
2022-11-04T08:50:09.000Z,944
2022-11-04T08:51:25.406Z,976
2022-11-04T08:52:41.000Z,1036
2022-11-04T08:53:56.000Z,1120
2022-11-04T08:55:12.000Z,1168
2022-11-04T08:56:28.000Z,1148
2022-11-04T08:57:44.000Z,1204
2022-11-04T08:59:01.289Z,1340
2022-11-04T09:00:17.000Z,1248
2022-11-04T09:01:33.000Z,928
2022-11-04T09:02:49.000Z,864
2022-11-04T09:04:05.000Z,964
2022-11-04T09:05:21.000Z,916
2022-11-04T09:06:37.000Z,804
2022-11-04T09:07:54.000Z,968
2022-11-04T09:09:10.000Z,1172
2022-11-04T09:10:25.000Z,1280
2022-11-04T09:11:41.000Z,1364
2022-11-04T09:12:57.000Z,1324
2022-11-04T09:14:13.000Z,1272
2022-11-04T09:15:30.195Z,1464
2022-11-04T09:16:46.000Z,1760
2022-11-04T09:18:02.493Z,1828
2022-11-04T09:19:18.000Z,1916
2022-11-04T09:20:34.000Z,1832
2022-11-04T09:21:50.940Z,1584
2022-11-04T09:23:06.000Z,1408
2022-11-04T09:24:23.213Z,1312
2022-11-04T09:25:39.365Z,1272
2022-11-04T09:26:54.000Z,1384
2022-11-04T09:28:10.000Z,1600
2022-11-04T09:29:26.835Z,1744
2022-11-04T09:30:42.966Z,1596
2022-11-04T09:31:59.113Z,1488
2022-11-04T09:33:15.248Z,1464
2022-11-04T09:34:31.000Z,1364
2022-11-04T09:35:47.000Z,1552
2022-11-04T09:37:03.000Z,1544
2022-11-04T09:38:19.000Z,1344
2022-11-04T09:39:35.974Z,972
2022-11-04T09:40:51.000Z,964
2022-11-04T09:42:08.000Z,960
2022-11-04T09:43:23.000Z,1028
2022-11-04T09:44:39.586Z,944
2022-11-04T09:45:55.747Z,984
2022-11-04T09:47:11.000Z,1204
2022-11-04T09:48:26.000Z,1040
2022-11-04T09:49:42.000Z,1260
2022-11-04T09:50:59.327Z,1400
2022-11-04T09:52:15.471Z,1424
2022-11-04T09:53:31.000Z,1464
2022-11-04T09:54:47.000Z,2000
2022-11-04T09:56:03.000Z,1536
2022-11-04T09:57:19.000Z,1600
2022-11-04T09:58:35.000Z,1692
2022-11-04T09:59:52.000Z,1456
2022-11-04T10:01:08.000Z,1752
2022-11-04T10:02:24.000Z,2064
2022-11-04T10:03:40.793Z,2840
2022-11-04T10:04:55.935Z,1956
2022-11-04T10:06:11.000Z,1556
2022-11-04T10:07:28.233Z,1604
2022-11-04T10:08:44.374Z,1696
2022-11-04T10:10:00.000Z,1988
2022-11-04T10:11:16.664Z,1460
2022-11-04T10:12:32.000Z,1588
2022-11-04T10:13:48.000Z,1444
2022-11-04T10:15:04.000Z,1368
2022-11-04T10:16:21.000Z,1556
2022-11-04T10:17:37.400Z,1604
2022-11-04T10:18:53.544Z,1528
2022-11-04T10:20:09.000Z,1332
2022-11-04T10:21:24.000Z,1384
2022-11-04T10:22:40.000Z,1444
2022-11-04T10:23:56.000Z,1444
2022-11-04T10:25:13.000Z,1252
2022-11-04T10:26:29.000Z,2196
2022-11-04T10:27:45.571Z,1704
2022-11-04T10:29:01.711Z,3320
2022-11-04T10:30:17.000Z,2140
2022-11-04T10:31:33.000Z,1716
2022-11-04T10:32:49.000Z,1612
2022-11-04T10:34:06.301Z,1464
2022-11-04T10:35:22.000Z,1268
2022-11-04T10:36:38.000Z,1384
2022-11-04T10:37:53.772Z,1056
2022-11-04T10:39:09.000Z,1192
2022-11-04T10:40:25.000Z,1944
2022-11-04T10:41:41.000Z,1640
2022-11-04T10:42:58.000Z,1080
2022-11-04T10:44:14.000Z,940
2022-11-04T10:45:30.000Z,840
2022-11-04T10:46:46.000Z,916
2022-11-04T10:48:02.000Z,1064
2022-11-04T10:49:18.000Z,976
2022-11-04T10:50:34.000Z,1040
2022-11-04T10:51:51.000Z,852
2022-11-04T10:53:07.523Z,664
2022-11-04T10:54:22.783Z,560
2022-11-04T10:55:38.000Z,580
2022-11-04T10:56:54.000Z,620
2022-11-04T10:58:10.000Z,684
2022-11-04T10:59:27.000Z,744
2022-11-04T11:00:43.405Z,844
2022-11-04T11:01:59.000Z,836
2022-11-04T11:03:15.678Z,988
2022-11-04T11:04:31.000Z,908
2022-11-04T11:05:47.000Z,4928
2022-11-04T11:07:03.000Z,1156
2022-11-04T11:08:20.000Z,1956
2022-11-04T11:09:36.406Z,2172
2022-11-04T11:10:51.000Z,1792
2022-11-04T11:12:07.711Z,1776
2022-11-04T11:13:23.000Z,1604
2022-11-04T11:14:40.012Z,1476
2022-11-04T11:15:56.154Z,1520
2022-11-04T11:17:12.299Z,1460
2022-11-04T11:18:28.000Z,1292
2022-11-04T11:19:44.000Z,1012
2022-11-04T11:21:00.000Z,796
2022-11-04T11:22:16.000Z,920
2022-11-04T11:23:32.000Z,936
2022-11-04T11:24:48.000Z,984
2022-11-04T11:26:05.000Z,1148
2022-11-04T11:27:20.000Z,1416
2022-11-04T11:28:36.000Z,1540
2022-11-04T11:29:52.000Z,1672
2022-11-04T11:31:08.000Z,1660
2022-11-04T11:32:24.000Z,1576
2022-11-04T11:33:41.218Z,1480
2022-11-04T11:34:57.000Z,1504
2022-11-04T11:36:13.501Z,1464
2022-11-04T11:37:29.000Z,1024
2022-11-04T11:38:45.000Z,812
2022-11-04T11:40:01.000Z,1196
2022-11-04T11:41:17.000Z,4164
2022-11-04T11:42:33.000Z,4528
2022-11-04T11:43:49.000Z,3984
2022-11-04T11:45:05.000Z,4048
2022-11-04T11:46:21.000Z,2832
2022-11-04T11:47:37.833Z,4332
2022-11-04T11:48:53.974Z,4444
2022-11-04T11:50:10.109Z,4528
2022-11-04T11:51:26.000Z,4580
2022-11-04T11:52:42.000Z,4556
2022-11-04T11:53:58.000Z,4492
2022-11-04T11:55:14.000Z,4436
2022-11-04T11:56:30.841Z,4236
2022-11-04T11:57:46.995Z,4500
2022-11-04T11:59:02.000Z,4620
2022-11-04T12:00:18.000Z,4196
2022-11-04T12:01:34.451Z,4648
2022-11-04T12:02:50.000Z,4820
2022-11-04T12:04:06.736Z,4424
2022-11-04T12:05:22.000Z,4100
2022-11-04T12:06:39.031Z,4184
2022-11-04T12:07:54.000Z,4560
2022-11-04T12:09:11.312Z,4532
2022-11-04T12:10:27.000Z,4772
2022-11-04T12:11:43.000Z,4752
2022-11-04T12:12:59.761Z,4772
2022-11-04T12:14:15.000Z,5084
2022-11-04T12:15:32.052Z,5616
2022-11-04T12:16:46.000Z,5628
2022-11-04T12:18:03.000Z,5504
2022-11-04T12:19:19.493Z,5456
2022-11-04T12:20:35.643Z,4564
2022-11-04T12:21:51.782Z,3920
2022-11-04T12:23:07.956Z,2136
2022-11-04T12:24:23.000Z,1616
2022-11-04T12:25:40.216Z,1672
2022-11-04T12:26:56.000Z,892
2022-11-04T12:28:12.000Z,428
2022-11-04T12:29:28.000Z,416
2022-11-04T12:30:44.808Z,488
2022-11-04T12:32:00.956Z,640
2022-11-04T12:33:15.000Z,732
2022-11-04T12:34:32.000Z,776
2022-11-04T12:35:48.396Z,888
2022-11-04T12:37:04.000Z,1144
2022-11-04T12:38:20.000Z,1320
2022-11-04T12:39:36.000Z,1536
2022-11-04T12:40:52.981Z,1552
2022-11-04T12:42:08.000Z,1384
2022-11-04T12:43:25.000Z,1448
2022-11-04T12:44:41.000Z,1476
2022-11-04T12:45:57.566Z,1096
2022-11-04T12:47:13.000Z,976
2022-11-04T12:48:29.000Z,1244
2022-11-04T12:49:44.000Z,1532
2022-11-04T12:51:00.000Z,2740
2022-11-04T12:52:17.000Z,1716
2022-11-04T12:53:33.000Z,1692
2022-11-04T12:54:49.589Z,1824
2022-11-04T12:56:05.000Z,1168
2022-11-04T12:57:21.899Z,788
2022-11-04T12:58:38.029Z,664
2022-11-04T12:59:53.000Z,704
2022-11-04T13:01:10.000Z,716
2022-11-04T13:02:26.462Z,744
2022-11-04T13:03:42.625Z,732
2022-11-04T13:04:58.758Z,740
2022-11-04T13:06:13.926Z,1752
2022-11-04T13:07:29.000Z,2204
2022-11-04T13:08:46.210Z,2184
2022-11-04T13:10:02.351Z,2128
2022-11-04T13:11:18.497Z,2044
2022-11-04T13:12:34.000Z,1884
2022-11-04T13:13:50.793Z,1764
2022-11-04T13:15:06.000Z,1756
2022-11-04T13:16:23.092Z,1580
2022-11-04T13:17:38.000Z,1644
2022-11-04T13:18:55.388Z,1584
2022-11-04T13:20:11.000Z,1264
2022-11-04T13:21:27.000Z,1428
2022-11-04T13:22:42.000Z,1400
2022-11-04T13:23:58.000Z,1484
2022-11-04T13:25:14.000Z,1524
2022-11-04T13:26:31.260Z,1604
2022-11-04T13:27:47.000Z,1276
2022-11-04T13:29:03.000Z,1348
2022-11-04T13:30:19.000Z,1352
2022-11-04T13:31:35.842Z,1284
2022-11-04T13:32:51.000Z,1280
2022-11-04T13:34:08.129Z,1408
2022-11-04T13:35:24.276Z,1596
2022-11-04T13:36:40.000Z,1576
2022-11-04T13:37:56.580Z,1296
2022-11-04T13:39:11.000Z,1168
2022-11-04T13:40:27.000Z,1012
2022-11-04T13:41:43.000Z,832
2022-11-04T13:42:59.000Z,748
2022-11-04T13:44:16.000Z,704
2022-11-04T13:45:32.000Z,744
2022-11-04T13:46:48.604Z,740
2022-11-04T13:48:04.749Z,804
2022-11-04T13:49:20.903Z,568
2022-11-04T13:50:37.043Z,544
2022-11-04T13:51:52.000Z,820
2022-11-04T13:53:09.335Z,912
2022-11-04T13:54:25.000Z,908
2022-11-04T13:55:40.662Z,892
2022-11-04T13:56:56.000Z,904
2022-11-04T13:58:12.928Z,944
2022-11-04T13:59:28.000Z,980
2022-11-04T14:00:45.221Z,1008
2022-11-04T14:02:01.000Z,996
2022-11-04T14:03:16.000Z,972
2022-11-04T14:04:32.000Z,968
2022-11-04T14:05:48.819Z,932
2022-11-04T14:07:04.000Z,900
2022-11-04T14:08:20.000Z,876
2022-11-04T14:09:37.000Z,828
2022-11-04T14:10:53.000Z,772
2022-11-04T14:12:09.547Z,760
2022-11-04T14:13:25.691Z,772
2022-11-04T14:14:41.000Z,784
2022-11-04T14:15:57.000Z,732
2022-11-04T14:17:13.000Z,696
2022-11-04T14:18:30.000Z,680
2022-11-04T14:19:45.437Z,688
2022-11-04T14:21:01.000Z,712
2022-11-04T14:22:17.000Z,744
2022-11-04T14:23:33.000Z,732
2022-11-04T14:24:49.000Z,708
2022-11-04T14:26:05.000Z,696
2022-11-04T14:27:22.000Z,688
2022-11-04T14:28:38.000Z,692
2022-11-04T14:29:54.607Z,672
2022-11-04T14:31:10.000Z,588
2022-11-04T14:32:26.000Z,556
2022-11-04T14:33:43.036Z,600
2022-11-04T14:34:59.190Z,604
2022-11-04T14:36:14.000Z,580
2022-11-04T14:37:30.000Z,532
2022-11-04T14:38:46.000Z,416
2022-11-04T14:40:02.785Z,396
2022-11-04T14:41:18.000Z,636
2022-11-04T14:42:34.000Z,732
2022-11-04T14:43:51.214Z,592
2022-11-04T14:45:07.356Z,616
2022-11-04T14:46:23.000Z,660
2022-11-04T14:47:39.000Z,528
2022-11-04T14:48:55.000Z,592
2022-11-04T14:50:11.000Z,492
2022-11-04T14:51:27.000Z,408
2022-11-04T14:52:43.000Z,388
2022-11-04T14:53:59.395Z,364
2022-11-04T14:55:15.000Z,360
2022-11-04T14:56:31.688Z,360
2022-11-04T14:57:47.000Z,352
2022-11-04T14:59:03.000Z,332
2022-11-04T15:00:19.000Z,324
2022-11-04T15:01:36.266Z,312
2022-11-04T15:02:52.000Z,312
2022-11-04T15:04:08.000Z,324
2022-11-04T15:05:24.000Z,308
2022-11-04T15:06:40.860Z,276
2022-11-04T15:07:56.000Z,252
2022-11-04T15:09:11.000Z,248
2022-11-04T15:10:28.305Z,240
2022-11-04T15:11:44.000Z,228
2022-11-04T15:13:00.000Z,224
2022-11-04T15:14:16.000Z,220
2022-11-04T15:15:32.894Z,216
2022-11-04T15:16:48.000Z,200
2022-11-04T15:18:04.000Z,180
2022-11-04T15:19:21.000Z,164
2022-11-04T15:20:37.467Z,152
2022-11-04T15:21:53.000Z,148
2022-11-04T15:23:09.000Z,140
2022-11-04T15:24:25.900Z,132
2022-11-04T15:25:40.000Z,128
2022-11-04T15:26:56.000Z,116
2022-11-04T15:28:13.350Z,112
2022-11-04T15:29:29.513Z,104
2022-11-04T15:30:45.000Z,96
2022-11-04T15:32:01.000Z,88
2022-11-04T15:33:17.000Z,84
2022-11-04T15:34:33.000Z,72
2022-11-04T15:35:50.224Z,68
2022-11-04T15:37:06.000Z,60
2022-11-04T15:38:22.000Z,56
2022-11-04T15:39:38.000Z,48
2022-11-04T15:40:54.805Z,44
2022-11-04T15:42:09.000Z,36
2022-11-04T15:43:26.111Z,32
2022-11-04T15:44:42.000Z,28
2022-11-04T15:45:58.419Z,28
2022-11-04T15:47:14.000Z,24
2022-11-04T15:48:30.000Z,20
2022-11-04T15:49:46.840Z,16
2022-11-04T15:51:02.000Z,16
2022-11-04T15:52:18.000Z,12
2022-11-04T15:53:35.000Z,12
2022-11-04T15:54:51.000Z,8
2022-11-04T15:56:07.567Z,8
2022-11-04T15:57:23.713Z,8
2022-11-04T15:58:38.000Z,4
2022-11-04T15:59:54.000Z,4
2022-11-04T16:01:10.000Z,4
2022-11-04T16:02:27.000Z,4
2022-11-04T16:03:43.000Z,4
2022-11-04T16:04:59.603Z,0
2022-11-04T16:06:15.753Z,4
2022-11-04T16:07:31.000Z,0
2022-11-04T16:08:47.000Z,0
2022-11-04T16:10:04.188Z,0
2022-11-04T16:11:20.000Z,0
2022-11-04T16:12:36.473Z,0
2022-11-04T16:13:52.000Z,0
2022-11-04T16:15:07.000Z,0
2022-11-04T16:16:23.000Z,0
2022-11-04T16:17:39.000Z,0
2022-11-04T16:18:55.000Z,0
2022-11-04T16:20:12.000Z,0
2022-11-04T16:21:28.506Z,0
2022-11-04T16:22:44.657Z,0
2022-11-04T16:24:00.000Z,0
2022-11-04T16:25:16.000Z,0
2022-11-04T16:26:32.000Z,0
2022-11-04T16:27:49.000Z,0
2022-11-04T16:29:05.000Z,0
2022-11-04T16:30:21.545Z,0
2022-11-04T16:31:36.000Z,0
2022-11-04T16:32:52.000Z,0
2022-11-04T16:34:08.000Z,0
2022-11-04T16:35:25.148Z,0
2022-11-04T16:36:41.280Z,0
2022-11-04T16:37:57.425Z,0
2022-11-04T16:39:13.000Z,0
2022-11-04T16:40:29.000Z,0
2022-11-04T16:41:45.000Z,0
2022-11-04T16:43:02.008Z,0
2022-11-04T16:44:18.161Z,0
2022-11-04T16:45:34.305Z,0
2022-11-04T16:46:50.000Z,0
2022-11-04T16:49:21.766Z,0
2022-11-04T16:50:37.920Z,0
2022-11-04T16:51:54.052Z,0
2022-11-04T16:53:10.199Z,0
2022-11-04T16:54:26.000Z,0
2022-11-04T16:55:42.000Z,0
2022-11-04T16:56:58.000Z,0
2022-11-04T16:58:14.793Z,0
2022-11-04T16:59:30.000Z,0
2022-11-04T17:00:47.089Z,0
2022-11-04T17:02:03.221Z,0
2022-11-04T17:03:19.000Z,0
2022-11-04T17:04:34.557Z,0
2022-11-04T17:05:50.693Z,0
2022-11-04T17:07:06.000Z,0
2022-11-04T17:08:22.000Z,0
2022-11-04T17:09:38.000Z,0
2022-11-04T17:10:55.000Z,0
2022-11-04T17:12:11.000Z,0
2022-11-04T17:13:27.000Z,0
2022-11-04T17:14:43.708Z,0
2022-11-04T17:15:59.000Z,0
2022-11-04T17:17:15.000Z,0
2022-11-04T17:18:31.000Z,0
2022-11-04T17:19:48.000Z,0
2022-11-04T17:21:03.000Z,0
2022-11-04T17:22:19.000Z,0
2022-11-04T17:23:35.751Z,0
2022-11-04T17:24:51.000Z,0
2022-11-04T17:26:07.000Z,0
2022-11-04T17:27:23.000Z,0
2022-11-04T17:28:40.000Z,0
2022-11-04T17:29:56.000Z,0
2022-11-04T17:31:12.000Z,0
2022-11-04T17:32:28.802Z,0
2022-11-04T17:33:44.932Z,0
2022-11-04T17:35:01.073Z,0
2022-11-04T17:36:16.000Z,0
2022-11-04T17:37:32.000Z,0
2022-11-04T17:38:48.000Z,0
2022-11-04T17:40:04.680Z,0
2022-11-04T17:41:20.851Z,0
2022-11-04T17:42:36.000Z,0
2022-11-04T17:43:52.000Z,0
2022-11-04T17:45:09.000Z,0
2022-11-04T17:46:25.000Z,0
2022-11-04T17:47:41.000Z,0
2022-11-04T17:48:57.000Z,0
2022-11-04T17:50:13.000Z,0
2022-11-04T17:51:30.012Z,0
2022-11-04T17:52:45.000Z,0
2022-11-04T17:54:01.000Z,0
2022-11-04T17:55:17.000Z,0
2022-11-04T17:56:33.613Z,0
2022-11-04T17:57:49.000Z,0